sensor_id;sensor_type;location;lat;lon;timestamp;temperature;humidity
62575;DHT22;70119;45.638;11.714;2023-07-13T00:01:17;32.90;45.70
62575;DHT22;70119;45.638;11.714;2023-07-13T00:03:43;32.80;45.60
62575;DHT22;70119;45.638;11.714;2023-07-13T00:06:09;32.80;45.70
62575;DHT22;70119;45.638;11.714;2023-07-13T00:08:35;32.80;45.80
62575;DHT22;70119;45.638;11.714;2023-07-13T00:11:03;32.80;45.80
62575;DHT22;70119;45.638;11.714;2023-07-13T00:13:30;32.80;45.80
62575;DHT22;70119;45.638;11.714;2023-07-13T00:15:58;32.80;45.80
62575;DHT22;70119;45.638;11.714;2023-07-13T00:18:27;32.80;45.90
62575;DHT22;70119;45.638;11.714;2023-07-13T00:20:59;32.80;45.90
62575;DHT22;70119;45.638;11.714;2023-07-13T00:23:39;32.80;45.90
62575;DHT22;70119;45.638;11.714;2023-07-13T00:26:25;32.80;45.80
62575;DHT22;70119;45.638;11.714;2023-07-13T00:28:54;32.80;45.70
62575;DHT22;70119;45.638;11.714;2023-07-13T00:31:30;32.80;45.60
62575;DHT22;70119;45.638;11.714;2023-07-13T00:34:01;32.80;45.70
62575;DHT22;70119;45.638;11.714;2023-07-13T00:36:29;32.80;45.80
62575;DHT22;70119;45.638;11.714;2023-07-13T00:38:57;32.70;45.80
62575;DHT22;70119;45.638;11.714;2023-07-13T00:41:25;32.70;45.80
62575;DHT22;70119;45.638;11.714;2023-07-13T00:43:52;32.70;45.90
62575;DHT22;70119;45.638;11.714;2023-07-13T00:46:25;32.70;45.90
62575;DHT22;70119;45.638;11.714;2023-07-13T00:48:52;32.70;45.90
62575;DHT22;70119;45.638;11.714;2023-07-13T00:51:22;32.70;45.70
62575;DHT22;70119;45.638;11.714;2023-07-13T00:53:51;32.70;45.60
62575;DHT22;70119;45.638;11.714;2023-07-13T00:56:18;32.70;45.50
62575;DHT22;70119;45.638;11.714;2023-07-13T00:58:45;32.70;45.50
62575;DHT22;70119;45.638;11.714;2023-07-13T01:01:11;32.70;45.60
62575;DHT22;70119;45.638;11.714;2023-07-13T01:03:38;32.80;45.50
62575;DHT22;70119;45.638;11.714;2023-07-13T01:06:06;32.70;45.60
62575;DHT22;70119;45.638;11.714;2023-07-13T01:08:32;32.70;45.60
62575;DHT22;70119;45.638;11.714;2023-07-13T01:10:58;32.80;45.60
62575;DHT22;70119;45.638;11.714;2023-07-13T01:13:24;32.80;45.70
62575;DHT22;70119;45.638;11.714;2023-07-13T01:15:51;32.80;45.70
62575;DHT22;70119;45.638;11.714;2023-07-13T01:18:28;32.80;45.70
62575;DHT22;70119;45.638;11.714;2023-07-13T01:21:02;32.80;45.80
62575;DHT22;70119;45.638;11.714;2023-07-13T01:23:29;32.80;45.80
62575;DHT22;70119;45.638;11.714;2023-07-13T01:25:56;32.80;45.80
62575;DHT22;70119;45.638;11.714;2023-07-13T01:28:24;32.80;45.80
62575;DHT22;70119;45.638;11.714;2023-07-13T01:30:53;32.80;45.80
62575;DHT22;70119;45.638;11.714;2023-07-13T01:33:20;32.80;45.80
62575;DHT22;70119;45.638;11.714;2023-07-13T01:35:46;32.80;45.80
62575;DHT22;70119;45.638;11.714;2023-07-13T01:38:20;32.80;45.80
62575;DHT22;70119;45.638;11.714;2023-07-13T01:40:47;32.70;45.90
62575;DHT22;70119;45.638;11.714;2023-07-13T01:43:13;32.70;45.90
62575;DHT22;70119;45.638;11.714;2023-07-13T01:45:39;32.70;45.90
62575;DHT22;70119;45.638;11.714;2023-07-13T01:48:05;32.70;45.90
62575;DHT22;70119;45.638;11.714;2023-07-13T01:50:34;32.70;46.00
62575;DHT22;70119;45.638;11.714;2023-07-13T01:53:00;32.70;46.00
62575;DHT22;70119;45.638;11.714;2023-07-13T01:55:28;32.70;46.00
62575;DHT22;70119;45.638;11.714;2023-07-13T01:57:55;32.70;46.00
62575;DHT22;70119;45.638;11.714;2023-07-13T03:24:36;28.10;57.40
62575;DHT22;70119;45.638;11.714;2023-07-13T03:27:04;32.20;47.60
62575;DHT22;70119;45.638;11.714;2023-07-13T03:29:31;32.30;47.40
62575;DHT22;70119;45.638;11.714;2023-07-13T03:31:57;32.30;47.30
62575;DHT22;70119;45.638;11.714;2023-07-13T03:34:23;32.30;47.20
62575;DHT22;70119;45.638;11.714;2023-07-13T03:36:49;32.30;47.10
62575;DHT22;70119;45.638;11.714;2023-07-13T03:39:15;32.40;47.10
62575;DHT22;70119;45.638;11.714;2023-07-13T03:41:40;32.40;47.00
62575;DHT22;70119;45.638;11.714;2023-07-13T03:44:06;32.40;46.90
62575;DHT22;70119;45.638;11.714;2023-07-13T03:46:32;32.50;46.90
62575;DHT22;70119;45.638;11.714;2023-07-13T03:48:59;32.50;46.90
62575;DHT22;70119;45.638;11.714;2023-07-13T03:51:25;32.50;46.80
62575;DHT22;70119;45.638;11.714;2023-07-13T03:53:51;32.50;46.80
62575;DHT22;70119;45.638;11.714;2023-07-13T03:56:18;32.50;46.80
62575;DHT22;70119;45.638;11.714;2023-07-13T03:58:47;32.50;46.80
62575;DHT22;70119;45.638;11.714;2023-07-13T04:01:15;32.60;46.70
62575;DHT22;70119;45.638;11.714;2023-07-13T04:03:42;32.60;46.70
62575;DHT22;70119;45.638;11.714;2023-07-13T04:06:18;32.50;46.70
62575;DHT22;70119;45.638;11.714;2023-07-13T04:08:51;32.50;46.80
62575;DHT22;70119;45.638;11.714;2023-07-13T04:11:18;32.50;46.70
62575;DHT22;70119;45.638;11.714;2023-07-13T04:13:45;32.00;46.50
62575;DHT22;70119;45.638;11.714;2023-07-13T04:16:12;30.30;50.20
62575;DHT22;70119;45.638;11.714;2023-07-13T04:18:38;29.30;53.00
62575;DHT22;70119;45.638;11.714;2023-07-13T04:21:04;28.70;54.90
62575;DHT22;70119;45.638;11.714;2023-07-13T04:23:30;28.60;55.10
62575;DHT22;70119;45.638;11.714;2023-07-13T04:25:56;28.50;55.00
62575;DHT22;70119;45.638;11.714;2023-07-13T04:28:23;28.40;55.60
62575;DHT22;70119;45.638;11.714;2023-07-13T04:30:49;28.20;56.10
62575;DHT22;70119;45.638;11.714;2023-07-13T04:33:16;28.00;56.60
62575;DHT22;70119;45.638;11.714;2023-07-13T04:35:43;27.90;57.00
62575;DHT22;70119;45.638;11.714;2023-07-13T04:38:09;28.00;56.90
62575;DHT22;70119;45.638;11.714;2023-07-13T04:40:36;28.10;56.10
62575;DHT22;70119;45.638;11.714;2023-07-13T04:43:03;28.70;54.60
62575;DHT22;70119;45.638;11.714;2023-07-13T04:45:28;29.00;54.40
62575;DHT22;70119;45.638;11.714;2023-07-13T04:47:54;28.20;56.70
62575;DHT22;70119;45.638;11.714;2023-07-13T04:50:20;27.90;57.70
62575;DHT22;70119;45.638;11.714;2023-07-13T04:52:49;28.10;56.70
62575;DHT22;70119;45.638;11.714;2023-07-13T04:55:15;28.50;55.50
62575;DHT22;70119;45.638;11.714;2023-07-13T04:57:41;28.90;54.40
62575;DHT22;70119;45.638;11.714;2023-07-13T05:00:07;29.10;54.20
62575;DHT22;70119;45.638;11.714;2023-07-13T05:02:34;29.10;54.50
62575;DHT22;70119;45.638;11.714;2023-07-13T05:05:01;28.50;56.10
62575;DHT22;70119;45.638;11.714;2023-07-13T05:07:26;28.00;57.70
62575;DHT22;70119;45.638;11.714;2023-07-13T05:09:52;27.80;58.50
62575;DHT22;70119;45.638;11.714;2023-07-13T05:12:18;27.90;58.10
62575;DHT22;70119;45.638;11.714;2023-07-13T05:14:44;27.80;58.40
62575;DHT22;70119;45.638;11.714;2023-07-13T05:17:10;27.70;58.40
62575;DHT22;70119;45.638;11.714;2023-07-13T05:19:36;28.00;57.60
62575;DHT22;70119;45.638;11.714;2023-07-13T05:22:02;28.30;57.10
62575;DHT22;70119;45.638;11.714;2023-07-13T05:24:29;28.40;56.70
62575;DHT22;70119;45.638;11.714;2023-07-13T05:26:55;28.80;55.60
62575;DHT22;70119;45.638;11.714;2023-07-13T05:29:22;29.00;55.00
62575;DHT22;70119;45.638;11.714;2023-07-13T05:31:48;29.30;54.20
62575;DHT22;70119;45.638;11.714;2023-07-13T05:34:14;29.60;53.70
62575;DHT22;70119;45.638;11.714;2023-07-13T05:36:41;29.90;53.10
62575;DHT22;70119;45.638;11.714;2023-07-13T05:39:06;30.10;52.70
62575;DHT22;70119;45.638;11.714;2023-07-13T05:41:32;30.20;52.50
62575;DHT22;70119;45.638;11.714;2023-07-13T05:43:58;30.40;52.30
62575;DHT22;70119;45.638;11.714;2023-07-13T05:46:25;30.50;52.10
62575;DHT22;70119;45.638;11.714;2023-07-13T05:48:51;30.60;52.00
62575;DHT22;70119;45.638;11.714;2023-07-13T05:51:17;30.70;52.00
62575;DHT22;70119;45.638;11.714;2023-07-13T05:53:44;30.80;51.80
62575;DHT22;70119;45.638;11.714;2023-07-13T05:56:10;30.80;51.70
62575;DHT22;70119;45.638;11.714;2023-07-13T05:58:37;30.80;51.60
62575;DHT22;70119;45.638;11.714;2023-07-13T06:01:07;30.90;51.50
62575;DHT22;70119;45.638;11.714;2023-07-13T06:03:36;31.00;51.40
62575;DHT22;70119;45.638;11.714;2023-07-13T06:06:06;31.00;51.40
62575;DHT22;70119;45.638;11.714;2023-07-13T06:08:35;31.00;51.40
62575;DHT22;70119;45.638;11.714;2023-07-13T06:11:10;31.10;51.30
62575;DHT22;70119;45.638;11.714;2023-07-13T06:13:37;31.10;51.30
62575;DHT22;70119;45.638;11.714;2023-07-13T06:16:04;31.10;51.20
62575;DHT22;70119;45.638;11.714;2023-07-13T06:18:31;31.10;51.10
62575;DHT22;70119;45.638;11.714;2023-07-13T06:20:57;31.10;51.50
62575;DHT22;70119;45.638;11.714;2023-07-13T06:23:24;30.80;53.20
62575;DHT22;70119;45.638;11.714;2023-07-13T06:25:50;30.60;53.40
62575;DHT22;70119;45.638;11.714;2023-07-13T06:28:16;30.80;52.50
62575;DHT22;70119;45.638;11.714;2023-07-13T06:30:43;30.90;52.10
62575;DHT22;70119;45.638;11.714;2023-07-13T06:33:09;31.10;51.90
62575;DHT22;70119;45.638;11.714;2023-07-13T06:35:35;31.10;51.70
62575;DHT22;70119;45.638;11.714;2023-07-13T06:38:01;31.10;51.50
62575;DHT22;70119;45.638;11.714;2023-07-13T06:40:28;31.20;51.30
62575;DHT22;70119;45.638;11.714;2023-07-13T06:42:54;31.20;51.10
62575;DHT22;70119;45.638;11.714;2023-07-13T06:45:20;31.30;51.10
62575;DHT22;70119;45.638;11.714;2023-07-13T06:47:46;31.30;51.00
62575;DHT22;70119;45.638;11.714;2023-07-13T06:50:12;31.20;51.60
62575;DHT22;70119;45.638;11.714;2023-07-13T06:52:37;31.20;51.20
62575;DHT22;70119;45.638;11.714;2023-07-13T06:55:03;31.20;51.20
62575;DHT22;70119;45.638;11.714;2023-07-13T06:57:29;31.30;51.10
62575;DHT22;70119;45.638;11.714;2023-07-13T06:59:55;31.30;51.10
62575;DHT22;70119;45.638;11.714;2023-07-13T07:02:21;31.30;51.10
62575;DHT22;70119;45.638;11.714;2023-07-13T07:04:47;31.40;51.00
62575;DHT22;70119;45.638;11.714;2023-07-13T07:07:13;31.40;51.00
62575;DHT22;70119;45.638;11.714;2023-07-13T07:09:38;31.40;51.00
62575;DHT22;70119;45.638;11.714;2023-07-13T07:12:04;31.40;51.00
62575;DHT22;70119;45.638;11.714;2023-07-13T07:14:31;31.40;51.00
62575;DHT22;70119;45.638;11.714;2023-07-13T07:16:57;31.40;51.00
62575;DHT22;70119;45.638;11.714;2023-07-13T07:19:24;31.40;51.00
62575;DHT22;70119;45.638;11.714;2023-07-13T07:21:50;31.40;51.00
62575;DHT22;70119;45.638;11.714;2023-07-13T07:24:16;31.40;51.00
62575;DHT22;70119;45.638;11.714;2023-07-13T07:26:43;31.30;51.20
62575;DHT22;70119;45.638;11.714;2023-07-13T07:29:08;31.40;51.20
62575;DHT22;70119;45.638;11.714;2023-07-13T07:31:34;31.30;51.20
62575;DHT22;70119;45.638;11.714;2023-07-13T07:34:00;31.40;51.30
62575;DHT22;70119;45.638;11.714;2023-07-13T07:36:26;31.30;51.50
62575;DHT22;70119;45.638;11.714;2023-07-13T07:38:53;31.20;51.90
62575;DHT22;70119;45.638;11.714;2023-07-13T07:41:19;31.20;51.90
62575;DHT22;70119;45.638;11.714;2023-07-13T07:43:46;31.10;52.20
62575;DHT22;70119;45.638;11.714;2023-07-13T07:46:12;31.20;51.90
62575;DHT22;70119;45.638;11.714;2023-07-13T07:48:38;31.30;51.70
62575;DHT22;70119;45.638;11.714;2023-07-13T07:51:03;31.20;52.80
62575;DHT22;70119;45.638;11.714;2023-07-13T07:53:30;30.90;52.70
62575;DHT22;70119;45.638;11.714;2023-07-13T07:55:56;30.90;52.80
62575;DHT22;70119;45.638;11.714;2023-07-13T07:58:21;31.10;52.40
62575;DHT22;70119;45.638;11.714;2023-07-13T08:00:47;31.10;52.30
62575;DHT22;70119;45.638;11.714;2023-07-13T08:03:13;31.20;52.00
62575;DHT22;70119;45.638;11.714;2023-07-13T08:05:39;31.30;51.90
62575;DHT22;70119;45.638;11.714;2023-07-13T08:08:05;31.30;51.90
62575;DHT22;70119;45.638;11.714;2023-07-13T08:10:31;31.30;51.90
62575;DHT22;70119;45.638;11.714;2023-07-13T08:12:57;31.30;52.00
62575;DHT22;70119;45.638;11.714;2023-07-13T08:15:22;31.20;52.30
62575;DHT22;70119;45.638;11.714;2023-07-13T08:17:49;31.30;52.00
62575;DHT22;70119;45.638;11.714;2023-07-13T08:20:15;31.40;52.00
62575;DHT22;70119;45.638;11.714;2023-07-13T08:22:41;31.40;51.90
62575;DHT22;70119;45.638;11.714;2023-07-13T08:25:07;31.40;51.80
62575;DHT22;70119;45.638;11.714;2023-07-13T08:27:33;31.50;51.80
62575;DHT22;70119;45.638;11.714;2023-07-13T08:29:59;31.40;51.80
62575;DHT22;70119;45.638;11.714;2023-07-13T08:32:25;31.50;51.80
62575;DHT22;70119;45.638;11.714;2023-07-13T08:34:52;31.50;51.80
62575;DHT22;70119;45.638;11.714;2023-07-13T08:37:18;31.50;51.80
62575;DHT22;70119;45.638;11.714;2023-07-13T08:39:45;31.50;51.90
62575;DHT22;70119;45.638;11.714;2023-07-13T08:45:19;31.40;52.20
62575;DHT22;70119;45.638;11.714;2023-07-13T08:48:09;31.50;52.10
62575;DHT22;70119;45.638;11.714;2023-07-13T08:50:58;31.50;52.20
62575;DHT22;70119;45.638;11.714;2023-07-13T08:53:32;31.50;52.30
62575;DHT22;70119;45.638;11.714;2023-07-13T08:56:01;31.50;52.30
62575;DHT22;70119;45.638;11.714;2023-07-13T08:58:28;31.50;52.30
62575;DHT22;70119;45.638;11.714;2023-07-13T09:04:26;31.50;52.50
62575;DHT22;70119;45.638;11.714;2023-07-13T09:15:31;31.20;54.10
62575;DHT22;70119;45.638;11.714;2023-07-13T09:18:27;30.90;54.60
62575;DHT22;70119;45.638;11.714;2023-07-13T09:21:05;30.40;55.50
62575;DHT22;70119;45.638;11.714;2023-07-13T09:23:35;30.20;55.90
62575;DHT22;70119;45.638;11.714;2023-07-13T09:26:15;30.10;56.20
62575;DHT22;70119;45.638;11.714;2023-07-13T09:28:45;30.20;55.60
62575;DHT22;70119;45.638;11.714;2023-07-13T09:33:54;30.80;54.40
62575;DHT22;70119;45.638;11.714;2023-07-13T09:36:31;30.90;54.70
62575;DHT22;70119;45.638;11.714;2023-07-13T09:39:04;30.70;55.00
62575;DHT22;70119;45.638;11.714;2023-07-13T09:41:48;30.90;54.80
62575;DHT22;70119;45.638;11.714;2023-07-13T09:44:27;30.90;55.10
62575;DHT22;70119;45.638;11.714;2023-07-13T09:46:56;31.00;54.40
62575;DHT22;70119;45.638;11.714;2023-07-13T09:49:43;31.20;54.10
62575;DHT22;70119;45.638;11.714;2023-07-13T09:52:15;31.30;54.20
62575;DHT22;70119;45.638;11.714;2023-07-13T09:54:48;31.40;53.70
62575;DHT22;70119;45.638;11.714;2023-07-13T09:57:18;31.50;53.50
62575;DHT22;70119;45.638;11.714;2023-07-13T09:59:47;31.50;53.30
62575;DHT22;70119;45.638;11.714;2023-07-13T10:02:34;31.50;53.40
62575;DHT22;70119;45.638;11.714;2023-07-13T10:05:04;31.20;54.70
62575;DHT22;70119;45.638;11.714;2023-07-13T10:07:32;31.10;54.80
62575;DHT22;70119;45.638;11.714;2023-07-13T10:10:00;31.20;54.60
62575;DHT22;70119;45.638;11.714;2023-07-13T10:12:30;31.30;54.30
62575;DHT22;70119;45.638;11.714;2023-07-13T10:15:02;31.40;54.10
62575;DHT22;70119;45.638;11.714;2023-07-13T10:17:31;31.40;54.40
62575;DHT22;70119;45.638;11.714;2023-07-13T10:20:00;31.40;54.70
62575;DHT22;70119;45.638;11.714;2023-07-13T10:25:48;31.50;54.30
62575;DHT22;70119;45.638;11.714;2023-07-13T10:28:34;31.60;53.70
62575;DHT22;70119;45.638;11.714;2023-07-13T10:31:04;31.70;53.50
62575;DHT22;70119;45.638;11.714;2023-07-13T10:33:35;31.70;53.20
62575;DHT22;70119;45.638;11.714;2023-07-13T10:36:33;31.80;52.90
62575;DHT22;70119;45.638;11.714;2023-07-13T10:39:03;31.80;52.90
62575;DHT22;70119;45.638;11.714;2023-07-13T10:41:37;31.90;52.90
62575;DHT22;70119;45.638;11.714;2023-07-13T10:44:18;31.90;52.60
62575;DHT22;70119;45.638;11.714;2023-07-13T10:46:45;31.80;52.70
62575;DHT22;70119;45.638;11.714;2023-07-13T10:49:12;31.80;52.40
62575;DHT22;70119;45.638;11.714;2023-07-13T10:51:39;31.90;52.60
62575;DHT22;70119;45.638;11.714;2023-07-13T10:54:19;31.90;52.30
62575;DHT22;70119;45.638;11.714;2023-07-13T10:56:50;32.00;52.20
62575;DHT22;70119;45.638;11.714;2023-07-13T10:59:27;32.00;51.70
62575;DHT22;70119;45.638;11.714;2023-07-13T11:04:39;32.00;51.20
62575;DHT22;70119;45.638;11.714;2023-07-13T11:07:21;32.10;51.30
62575;DHT22;70119;45.638;11.714;2023-07-13T11:09:54;32.10;51.30
62575;DHT22;70119;45.638;11.714;2023-07-13T11:17:35;32.10;51.20
62575;DHT22;70119;45.638;11.714;2023-07-13T11:22:52;32.20;51.10
62575;DHT22;70119;45.638;11.714;2023-07-13T11:36:06;32.30;50.30
62575;DHT22;70119;45.638;11.714;2023-07-13T11:38:42;32.30;50.30
62575;DHT22;70119;45.638;11.714;2023-07-13T11:41:22;32.30;50.40
62575;DHT22;70119;45.638;11.714;2023-07-13T11:44:02;32.30;50.10
62575;DHT22;70119;45.638;11.714;2023-07-13T11:46:33;32.30;50.30
62575;DHT22;70119;45.638;11.714;2023-07-13T11:48:59;32.30;50.10
62575;DHT22;70119;45.638;11.714;2023-07-13T11:51:35;32.30;49.90
62575;DHT22;70119;45.638;11.714;2023-07-13T11:54:15;32.30;49.60
62575;DHT22;70119;45.638;11.714;2023-07-13T11:56:45;32.30;49.50
62575;DHT22;70119;45.638;11.714;2023-07-13T11:59:13;32.20;49.30
62575;DHT22;70119;45.638;11.714;2023-07-13T12:01:53;32.20;49.20
62575;DHT22;70119;45.638;11.714;2023-07-13T12:04:30;32.20;49.10
62575;DHT22;70119;45.638;11.714;2023-07-13T12:07:05;32.20;48.90
62575;DHT22;70119;45.638;11.714;2023-07-13T12:09:33;32.10;48.80
62575;DHT22;70119;45.638;11.714;2023-07-13T12:11:59;32.10;48.70
62575;DHT22;70119;45.638;11.714;2023-07-13T12:14:26;32.10;48.60
62575;DHT22;70119;45.638;11.714;2023-07-13T12:16:53;32.10;48.50
62575;DHT22;70119;45.638;11.714;2023-07-13T12:19:25;32.10;48.40
62575;DHT22;70119;45.638;11.714;2023-07-13T12:21:56;32.10;48.30
62575;DHT22;70119;45.638;11.714;2023-07-13T12:24:23;32.10;48.20
62575;DHT22;70119;45.638;11.714;2023-07-13T12:26:54;32.10;48.20
62575;DHT22;70119;45.638;11.714;2023-07-13T12:29:21;32.00;48.10
62575;DHT22;70119;45.638;11.714;2023-07-13T12:31:49;32.10;48.00
62575;DHT22;70119;45.638;11.714;2023-07-13T12:34:18;32.00;47.90
62575;DHT22;70119;45.638;11.714;2023-07-13T12:39:46;32.10;47.70
62575;DHT22;70119;45.638;11.714;2023-07-13T12:42:27;32.00;47.80
62575;DHT22;70119;45.638;11.714;2023-07-13T12:45:00;31.90;47.80
62575;DHT22;70119;45.638;11.714;2023-07-13T12:47:27;31.90;47.80
62575;DHT22;70119;45.638;11.714;2023-07-13T12:49:59;31.90;47.70
62575;DHT22;70119;45.638;11.714;2023-07-13T12:52:32;31.90;47.80
62575;DHT22;70119;45.638;11.714;2023-07-13T12:55:06;31.90;47.70
62575;DHT22;70119;45.638;11.714;2023-07-13T12:57:41;31.90;47.70
62575;DHT22;70119;45.638;11.714;2023-07-13T13:00:32;31.90;47.60
62575;DHT22;70119;45.638;11.714;2023-07-13T13:03:06;31.90;47.50
62575;DHT22;70119;45.638;11.714;2023-07-13T13:05:47;31.90;47.50
62575;DHT22;70119;45.638;11.714;2023-07-13T13:08:15;31.80;47.40
62575;DHT22;70119;45.638;11.714;2023-07-13T13:10:40;31.90;47.30
62575;DHT22;70119;45.638;11.714;2023-07-13T13:13:06;31.90;47.40
62575;DHT22;70119;45.638;11.714;2023-07-13T13:15:34;31.80;47.40
62575;DHT22;70119;45.638;11.714;2023-07-13T13:18:01;31.80;47.40
62575;DHT22;70119;45.638;11.714;2023-07-13T13:20:27;31.80;47.30
62575;DHT22;70119;45.638;11.714;2023-07-13T13:22:54;31.80;47.30
62575;DHT22;70119;45.638;11.714;2023-07-13T13:25:21;31.80;47.20
62575;DHT22;70119;45.638;11.714;2023-07-13T13:27:48;31.80;47.20
62575;DHT22;70119;45.638;11.714;2023-07-13T13:30:17;31.80;47.10
62575;DHT22;70119;45.638;11.714;2023-07-13T13:32:47;31.80;47.10
62575;DHT22;70119;45.638;11.714;2023-07-13T13:35:20;31.80;47.10
62575;DHT22;70119;45.638;11.714;2023-07-13T13:37:47;31.80;47.10
62575;DHT22;70119;45.638;11.714;2023-07-13T13:40:21;31.80;47.10
62575;DHT22;70119;45.638;11.714;2023-07-13T13:42:48;31.80;47.10
62575;DHT22;70119;45.638;11.714;2023-07-13T13:45:17;31.70;47.10
62575;DHT22;70119;45.638;11.714;2023-07-13T13:47:47;31.70;47.00
62575;DHT22;70119;45.638;11.714;2023-07-13T13:50:20;31.70;47.00
62575;DHT22;70119;45.638;11.714;2023-07-13T13:52:50;31.70;47.00
62575;DHT22;70119;45.638;11.714;2023-07-13T13:55:19;31.70;46.90
62575;DHT22;70119;45.638;11.714;2023-07-13T13:57:47;31.70;46.80
62575;DHT22;70119;45.638;11.714;2023-07-13T14:00:15;31.70;46.80
62575;DHT22;70119;45.638;11.714;2023-07-13T14:02:45;31.80;46.70
62575;DHT22;70119;45.638;11.714;2023-07-13T14:05:15;31.80;46.50
62575;DHT22;70119;45.638;11.714;2023-07-13T14:07:41;31.80;46.70
62575;DHT22;70119;45.638;11.714;2023-07-13T14:10:15;31.70;46.60
62575;DHT22;70119;45.638;11.714;2023-07-13T14:12:43;31.70;46.60
62575;DHT22;70119;45.638;11.714;2023-07-13T14:15:26;31.70;46.60
62575;DHT22;70119;45.638;11.714;2023-07-13T14:17:53;31.70;46.80
62575;DHT22;70119;45.638;11.714;2023-07-13T14:20:21;31.70;46.80
62575;DHT22;70119;45.638;11.714;2023-07-13T14:22:54;31.70;46.80
62575;DHT22;70119;45.638;11.714;2023-07-13T14:25:23;31.70;46.90
62575;DHT22;70119;45.638;11.714;2023-07-13T14:27:53;31.70;47.00
62575;DHT22;70119;45.638;11.714;2023-07-13T14:30:27;31.80;47.00
62575;DHT22;70119;45.638;11.714;2023-07-13T14:32:52;31.80;47.00
62575;DHT22;70119;45.638;11.714;2023-07-13T14:35:21;31.90;47.00
62575;DHT22;70119;45.638;11.714;2023-07-13T14:37:49;31.90;47.10
62575;DHT22;70119;45.638;11.714;2023-07-13T14:40:17;31.90;47.10
62575;DHT22;70119;45.638;11.714;2023-07-13T14:42:45;31.90;47.20
62575;DHT22;70119;45.638;11.714;2023-07-13T14:45:18;31.90;47.20
62575;DHT22;70119;45.638;11.714;2023-07-13T14:47:45;32.00;47.30
62575;DHT22;70119;45.638;11.714;2023-07-13T14:50:17;32.00;47.30
62575;DHT22;70119;45.638;11.714;2023-07-13T14:52:45;32.00;47.50
62575;DHT22;70119;45.638;11.714;2023-07-13T14:55:13;32.00;47.50
62575;DHT22;70119;45.638;11.714;2023-07-13T14:57:39;32.00;47.50
62575;DHT22;70119;45.638;11.714;2023-07-13T15:00:19;32.00;47.50
62575;DHT22;70119;45.638;11.714;2023-07-13T15:02:52;32.00;47.50
62575;DHT22;70119;45.638;11.714;2023-07-13T15:05:26;32.00;47.50
62575;DHT22;70119;45.638;11.714;2023-07-13T15:07:59;32.10;47.60
62575;DHT22;70119;45.638;11.714;2023-07-13T15:10:33;32.00;47.60
62575;DHT22;70119;45.638;11.714;2023-07-13T15:13:20;32.10;47.50
62575;DHT22;70119;45.638;11.714;2023-07-13T15:15:49;32.10;47.50
62575;DHT22;70119;45.638;11.714;2023-07-13T15:18:18;32.10;47.50
62575;DHT22;70119;45.638;11.714;2023-07-13T15:20:45;32.10;47.60
62575;DHT22;70119;45.638;11.714;2023-07-13T15:23:13;32.10;47.60
62575;DHT22;70119;45.638;11.714;2023-07-13T15:25:40;32.10;47.60
62575;DHT22;70119;45.638;11.714;2023-07-13T15:28:06;32.10;47.60
62575;DHT22;70119;45.638;11.714;2023-07-13T15:33:54;32.10;47.50
62575;DHT22;70119;45.638;11.714;2023-07-13T15:36:21;32.10;47.60
62575;DHT22;70119;45.638;11.714;2023-07-13T15:38:50;32.10;47.60
62575;DHT22;70119;45.638;11.714;2023-07-13T15:41:22;32.10;47.60
62575;DHT22;70119;45.638;11.714;2023-07-13T15:43:53;32.10;47.60
62575;DHT22;70119;45.638;11.714;2023-07-13T15:46:22;32.20;47.50
62575;DHT22;70119;45.638;11.714;2023-07-13T15:48:50;32.20;47.50
62575;DHT22;70119;45.638;11.714;2023-07-13T15:51:34;32.20;47.40
62575;DHT22;70119;45.638;11.714;2023-07-13T15:54:01;32.10;47.40
62575;DHT22;70119;45.638;11.714;2023-07-13T15:56:35;32.10;47.40
62575;DHT22;70119;45.638;11.714;2023-07-13T15:59:01;32.00;47.50
62575;DHT22;70119;45.638;11.714;2023-07-13T16:01:29;32.00;47.50
62575;DHT22;70119;45.638;11.714;2023-07-13T16:03:56;32.00;47.50
62575;DHT22;70119;45.638;11.714;2023-07-13T16:06:51;31.90;47.30
62575;DHT22;70119;45.638;11.714;2023-07-13T16:09:21;31.90;47.50
62575;DHT22;70119;45.638;11.714;2023-07-13T16:11:47;31.80;47.70
62575;DHT22;70119;45.638;11.714;2023-07-13T16:14:14;31.80;47.50
62575;DHT22;70119;45.638;11.714;2023-07-13T16:16:42;31.80;47.20
62575;DHT22;70119;45.638;11.714;2023-07-13T16:19:10;31.70;47.20
62575;DHT22;70119;45.638;11.714;2023-07-13T16:21:46;31.70;47.20
62575;DHT22;70119;45.638;11.714;2023-07-13T16:24:20;31.60;47.30
62575;DHT22;70119;45.638;11.714;2023-07-13T16:26:47;31.60;47.20
62575;DHT22;70119;45.638;11.714;2023-07-13T16:29:26;31.60;47.00
62575;DHT22;70119;45.638;11.714;2023-07-13T16:32:00;31.60;46.90
62575;DHT22;70119;45.638;11.714;2023-07-13T16:34:29;31.60;47.10
62575;DHT22;70119;45.638;11.714;2023-07-13T16:36:55;31.60;47.30
62575;DHT22;70119;45.638;11.714;2023-07-13T16:39:22;31.60;47.40
62575;DHT22;70119;45.638;11.714;2023-07-13T16:41:54;31.70;47.50
62575;DHT22;70119;45.638;11.714;2023-07-13T16:44:22;31.70;47.50
62575;DHT22;70119;45.638;11.714;2023-07-13T16:46:53;31.70;47.70
62575;DHT22;70119;45.638;11.714;2023-07-13T16:49:31;31.70;47.90
62575;DHT22;70119;45.638;11.714;2023-07-13T16:51:58;31.70;48.00
62575;DHT22;70119;45.638;11.714;2023-07-13T16:54:28;31.70;48.20
62575;DHT22;70119;45.638;11.714;2023-07-13T16:56:57;31.80;48.20
62575;DHT22;70119;45.638;11.714;2023-07-13T16:59:32;31.80;48.30
62575;DHT22;70119;45.638;11.714;2023-07-13T17:02:04;31.80;48.40
62575;DHT22;70119;45.638;11.714;2023-07-13T17:04:39;31.70;48.70
62575;DHT22;70119;45.638;11.714;2023-07-13T17:07:09;31.60;49.60
62575;DHT22;70119;45.638;11.714;2023-07-13T17:09:35;31.60;49.50
62575;DHT22;70119;45.638;11.714;2023-07-13T17:12:01;31.70;49.50
62575;DHT22;70119;45.638;11.714;2023-07-13T17:14:26;31.70;50.20
62575;DHT22;70119;45.638;11.714;2023-07-13T17:16:56;31.70;50.30
62575;DHT22;70119;45.638;11.714;2023-07-13T17:19:28;31.70;50.30
62575;DHT22;70119;45.638;11.714;2023-07-13T17:21:54;31.70;50.50
62575;DHT22;70119;45.638;11.714;2023-07-13T17:24:24;31.60;50.50
62575;DHT22;70119;45.638;11.714;2023-07-13T17:26:51;31.50;50.80
62575;DHT22;70119;45.638;11.714;2023-07-13T17:29:18;31.60;50.60
62575;DHT22;70119;45.638;11.714;2023-07-13T17:31:44;31.60;50.60
62575;DHT22;70119;45.638;11.714;2023-07-13T17:34:14;31.50;50.60
62575;DHT22;70119;45.638;11.714;2023-07-13T17:36:45;31.70;50.50
62575;DHT22;70119;45.638;11.714;2023-07-13T17:39:17;31.80;50.30
62575;DHT22;70119;45.638;11.714;2023-07-13T17:41:46;31.80;50.20